Time;durP1;ratioP1;P1;durP2;ratioP2;P2;SDS_P1;SDS_P2;PMS_P1;PMS_P2;Temp;Humidity;BMP_temperature;BMP_pressure;BME280_temperature;BME280_humidity;BME280_pressure;Samples;Min_cycle;Max_cycle;Signal;HPM_P1;HPM_P2
2023/09/28 00:01:32;;;;;;;3.17;2.17;;;20.00;75.10;;;;;;5112153;28;20027;-35
2023/09/28 00:03:57;;;;;;;4.13;2.28;;;20.00;75.00;;;;;;5111800;28;20026;-35
2023/09/28 00:06:23;;;;;;;2.95;2.35;;;20.00;75.00;;;;;;5112535;28;20040;-37
2023/09/28 00:08:49;;;;;;;2.83;2.28;;;20.00;75.00;;;;;;5111906;28;20016;-36
2023/09/28 00:11:15;;;;;;;4.18;2.53;;;20.00;75.00;;;;;;5112118;28;20465;-36
2023/09/28 00:13:40;;;;;;;2.75;2.53;;;20.00;75.00;;;;;;5111801;28;20075;-35
2023/09/28 00:16:06;;;;;;;5.25;2.80;;;20.00;75.00;;;;;;5111661;28;20031;-36
2023/09/28 00:18:31;;;;;;;4.72;2.38;;;19.90;75.00;;;;;;5111697;28;20434;-35
2023/09/28 00:20:57;;;;;;;3.30;2.10;;;19.90;75.10;;;;;;5111963;28;20035;-35
2023/09/28 00:23:22;;;;;;;2.70;2.40;;;19.90;75.10;;;;;;5111889;28;20015;-34
2023/09/28 00:25:48;;;;;;;2.30;2.10;;;19.90;75.20;;;;;;5111598;28;20446;-36
2023/09/28 00:28:13;;;;;;;2.55;2.28;;;19.90;75.20;;;;;;5111476;28;20523;-34
2023/09/28 00:30:39;;;;;;;4.10;2.38;;;19.80;75.20;;;;;;5111923;28;20030;-33
2023/09/28 00:33:05;;;;;;;3.85;2.40;;;19.70;75.30;;;;;;5111537;28;20024;-34
2023/09/28 00:35:30;;;;;;;2.40;2.20;;;19.70;75.40;;;;;;5111551;28;20036;-36
2023/09/28 00:37:56;;;;;;;5.07;2.53;;;19.70;75.50;;;;;;5111427;28;20032;-36
2023/09/28 00:40:28;;;;;;;4.43;2.40;;;19.60;75.50;;;;;;5097286;28;20104;-34
2023/09/28 00:42:55;;;;;;;2.90;2.13;;;19.60;75.50;;;;;;5115351;28;20069;-35
2023/09/28 00:45:22;;;;;;;3.35;2.38;;;19.60;75.50;;;;;;5115244;28;20055;-34
2023/09/28 00:47:50;;;;;;;3.08;2.22;;;19.60;75.40;;;;;;5115328;28;20024;-35
2023/09/28 00:50:17;;;;;;;4.57;2.50;;;19.60;75.90;;;;;;5115617;28;20012;-35
2023/09/28 00:52:46;;;;;;;2.97;2.38;;;19.60;75.20;;;;;;5115475;28;20031;-35
2023/09/28 00:55:14;;;;;;;3.60;2.35;;;19.60;75.10;;;;;;5115176;28;20097;-34
2023/09/28 00:57:42;;;;;;;4.60;2.25;;;19.60;75.00;;;;;;5115819;28;20031;-35
2023/09/28 01:00:29;;;;;;;4.32;2.10;;;19.60;75.00;;;;;;5115565;28;20423;-36
2023/09/28 01:02:57;;;;;;;2.40;2.00;;;19.60;75.00;;;;;;5114893;28;20057;-35
2023/09/28 01:05:31;;;;;;;3.45;2.35;;;19.60;75.00;;;;;;5114903;28;20027;-35
2023/09/28 01:08:07;;;;;;;3.95;2.55;;;19.60;74.90;;;;;;5115191;28;20032;-35
2023/09/28 01:10:36;;;;;;;3.53;2.10;;;19.60;74.90;;;;;;5115142;28;20028;-35
2023/09/28 01:13:12;;;;;;;2.85;1.98;;;19.60;75.00;;;;;;5115021;28;20027;-35
2023/09/28 01:15:39;;;;;;;2.65;2.13;;;19.60;75.00;;;;;;5114867;28;20026;-35
2023/09/28 01:18:09;;;;;;;4.22;2.10;;;19.60;75.80;;;;;;5115268;28;20477;-35
2023/09/28 01:20:36;;;;;;;4.03;2.65;;;19.50;75.10;;;;;;5115164;28;20015;-35
2023/09/28 01:23:04;;;;;;;2.83;2.35;;;19.50;75.20;;;;;;5114941;28;20038;-32
2023/09/28 01:25:30;;;;;;;3.40;2.58;;;19.50;75.30;;;;;;5115273;28;20354;-36
2023/09/28 01:27:56;;;;;;;3.22;2.92;;;19.50;75.30;;;;;;5114665;28;20048;-36
2023/09/28 01:30:23;;;;;;;2.65;2.15;;;19.50;75.40;;;;;;5114825;28;20047;-35
2023/09/28 01:32:49;;;;;;;3.00;2.40;;;19.50;75.60;;;;;;5115079;28;20030;-36
2023/09/28 01:35:14;;;;;;;2.72;2.50;;;19.40;75.70;;;;;;5114751;28;20660;-34
2023/09/28 01:38:21;;;;;;;2.53;2.00;;;19.40;75.80;;;;;;5114661;28;20020;-35
2023/09/28 01:40:50;;;;;;;3.00;2.20;;;19.30;75.80;;;;;;5086405;28;20051;-36
2023/09/28 01:43:18;;;;;;;5.30;2.63;;;19.30;75.90;;;;;;5114686;28;20102;-35
2023/09/28 01:45:45;;;;;;;4.55;2.67;;;19.20;76.00;;;;;;5095389;28;20028;-36
2023/09/28 01:48:11;;;;;;;4.00;2.33;;;19.20;76.20;;;;;;5114374;28;20020;-35
2023/09/28 01:50:37;;;;;;;3.58;2.58;;;19.20;76.30;;;;;;5113986;28;20092;-36
2023/09/28 01:53:02;;;;;;;3.58;2.45;;;19.10;76.30;;;;;;5096144;28;20544;-33
2023/09/28 01:55:28;;;;;;;3.33;2.55;;;19.10;76.40;;;;;;5114467;28;20020;-37
2023/09/28 01:57:54;;;;;;;5.35;2.40;;;19.10;76.60;;;;;;5114305;28;20401;-33
2023/09/28 02:00:21;;;;;;;2.78;2.47;;;19.00;76.70;;;;;;5114333;28;20020;-36
2023/09/28 02:02:51;;;;;;;3.60;2.17;;;19.00;76.80;;;;;;5114729;28;20398;-36
2023/09/28 02:05:18;;;;;;;2.65;2.35;;;19.00;76.90;;;;;;5114219;28;20047;-36
2023/09/28 02:07:45;;;;;;;2.65;2.28;;;19.00;77.00;;;;;;5114009;28;20060;-36
2023/09/28 02:10:10;;;;;;;2.92;2.38;;;19.00;77.00;;;;;;5114355;28;20032;-36
2023/09/28 02:12:40;;;;;;;2.92;2.45;;;18.90;77.00;;;;;;5096054;28;20419;-36
2023/09/28 02:15:15;;;;;;;3.28;2.53;;;19.00;77.10;;;;;;5114028;28;20028;-35
2023/09/28 02:17:42;;;;;;;3.30;2.70;;;18.90;77.10;;;;;;5113745;28;20019;-35
2023/09/28 02:20:09;;;;;;;3.00;2.42;;;18.90;77.20;;;;;;5114039;28;20019;-36
2023/09/28 02:22:43;;;;;;;3.10;2.30;;;18.90;77.30;;;;;;5095464;28;20070;-36
2023/09/28 02:25:17;;;;;;;3.53;2.20;;;18.90;77.40;;;;;;5113704;28;20015;-36
2023/09/28 02:27:44;;;;;;;4.13;3.17;;;18.80;78.10;;;;;;5113563;28;20066;-35
2023/09/28 02:30:14;;;;;;;2.88;2.50;;;18.80;77.60;;;;;;5113507;28;20023;-36
2023/09/28 02:32:43;;;;;;;4.93;2.90;;;18.70;78.20;;;;;;5113785;28;20024;-35
2023/09/28 02:35:09;;;;;;;4.15;3.75;;;18.70;77.70;;;;;;5113244;28;20032;-35
2023/09/28 02:37:35;;;;;;;3.35;2.58;;;18.70;77.90;;;;;;5113612;28;20074;-34
2023/09/28 02:40:04;;;;;;;2.60;2.40;;;18.60;78.00;;;;;;5113666;28;20457;-34
2023/09/28 02:42:30;;;;;;;4.18;2.70;;;18.60;78.10;;;;;;5113178;28;20038;-35
2023/09/28 02:44:56;;;;;;;2.92;2.50;;;18.50;78.10;;;;;;5113353;28;20019;-33
2023/09/28 02:47:22;;;;;;;3.53;2.35;;;18.50;78.20;;;;;;5113394;28;20012;-34
2023/09/28 02:49:48;;;;;;;3.75;2.65;;;18.50;78.40;;;;;;5113049;28;20499;-36
2023/09/28 02:52:14;;;;;;;5.60;2.30;;;18.50;78.50;;;;;;5113038;28;20058;-34
2023/09/28 02:54:40;;;;;;;5.30;2.60;;;18.50;78.50;;;;;;5112805;28;20047;-36
2023/09/28 02:57:05;;;;;;;3.60;2.80;;;18.50;78.60;;;;;;5113072;28;20024;-35
2023/09/28 02:59:32;;;;;;;3.33;2.47;;;18.50;78.70;;;;;;5112992;28;20038;-34
2023/09/28 03:01:57;;;;;;;3.25;2.08;;;18.50;78.70;;;;;;5112044;28;20031;-35
2023/09/28 03:04:24;;;;;;;3.97;2.53;;;18.50;78.90;;;;;;5112707;28;20450;-33
2023/09/28 03:06:52;;;;;;;2.38;2.17;;;18.50;78.90;;;;;;5113154;28;20027;-36
2023/09/28 03:09:18;;;;;;;2.95;2.45;;;18.50;78.90;;;;;;5112747;28;20036;-34
2023/09/28 03:11:43;;;;;;;2.85;2.50;;;18.40;79.00;;;;;;5113006;28;20034;-36
2023/09/28 03:14:09;;;;;;;5.47;2.63;;;18.40;79.10;;;;;;5112557;28;20114;-35
2023/09/28 03:16:35;;;;;;;5.55;2.88;;;18.40;79.30;;;;;;5112607;28;20019;-34
2023/09/28 03:19:01;;;;;;;4.28;2.70;;;18.40;79.40;;;;;;5112774;28;20035;-34
2023/09/28 03:21:30;;;;;;;3.58;2.45;;;18.40;79.50;;;;;;5112294;28;20040;-34
2023/09/28 03:23:57;;;;;;;4.05;2.40;;;18.40;79.40;;;;;;5112774;28;20019;-38
2023/09/28 03:26:23;;;;;;;5.50;3.05;;;18.50;79.50;;;;;;5112589;28;20496;-34
2023/09/28 03:28:49;;;;;;;3.47;2.58;;;18.50;79.50;;;;;;5112350;28;20039;-35
2023/09/28 03:31:14;;;;;;;4.40;2.47;;;18.50;79.50;;;;;;5112317;28;20426;-34
2023/09/28 03:33:40;;;;;;;4.65;2.38;;;18.50;79.60;;;;;;5112206;28;20034;-37
2023/09/28 03:36:07;;;;;;;3.78;3.00;;;18.50;79.70;;;;;;5112232;28;20054;-35
2023/09/28 03:38:33;;;;;;;5.95;2.80;;;18.50;79.70;;;;;;5112565;28;20738;-36
2023/09/28 03:40:58;;;;;;;4.88;2.78;;;18.40;79.70;;;;;;5112251;28;20106;-35
2023/09/28 03:43:24;;;;;;;5.00;2.80;;;18.40;79.80;;;;;;5112367;28;20068;-33
2023/09/28 03:45:50;;;;;;;3.78;2.80;;;18.40;80.30;;;;;;5112172;28;20020;-36
2023/09/28 03:48:16;;;;;;;4.65;2.72;;;18.30;79.90;;;;;;5112190;28;20554;-36
2023/09/28 03:50:42;;;;;;;4.10;2.67;;;18.30;80.00;;;;;;5111897;28;20023;-35
2023/09/28 03:53:07;;;;;;;2.63;2.42;;;18.30;80.10;;;;;;5112112;28;20057;-35
2023/09/28 03:55:33;;;;;;;4.25;2.75;;;18.30;80.20;;;;;;5111839;28;20035;-35
2023/09/28 03:58:00;;;;;;;3.78;2.60;;;18.30;80.20;;;;;;5111992;28;20037;-35
2023/09/28 04:00:26;;;;;;;3.15;2.63;;;18.30;80.30;;;;;;5111869;28;20019;-36
2023/09/28 04:02:52;;;;;;;4.07;2.85;;;18.30;80.30;;;;;;5112104;28;20472;-36
2023/09/28 04:05:18;;;;;;;3.20;2.70;;;18.30;80.40;;;;;;5111861;28;20023;-36
2023/09/28 04:07:44;;;;;;;7.78;3.00;;;18.30;80.50;;;;;;5112014;28;20081;-34
2023/09/28 04:10:11;;;;;;;5.78;2.70;;;18.30;80.50;;;;;;5112231;28;20431;-36
2023/09/28 04:12:37;;;;;;;4.28;3.05;;;18.30;80.60;;;;;;5112063;28;20035;-35
2023/09/28 04:15:03;;;;;;;4.35;2.80;;;18.30;80.70;;;;;;5111907;28;20028;-35
2023/09/28 04:17:30;;;;;;;6.03;2.78;;;18.30;80.70;;;;;;5112159;28;20430;-36
2023/09/28 04:19:55;;;;;;;4.00;2.85;;;18.20;80.70;;;;;;5112017;28;20445;-34
2023/09/28 04:22:21;;;;;;;4.28;2.95;;;18.20;80.80;;;;;;5111694;28;20038;-35
2023/09/28 04:24:46;;;;;;;5.13;3.03;;;18.20;80.90;;;;;;5111616;28;20111;-34
2023/09/28 04:27:12;;;;;;;4.50;3.20;;;18.20;81.00;;;;;;5111513;28;20020;-35
2023/09/28 04:29:38;;;;;;;4.80;3.08;;;18.20;81.00;;;;;;5111686;28;20020;-35
2023/09/28 04:32:04;;;;;;;4.28;2.80;;;18.20;81.10;;;;;;5111684;28;20111;-35
2023/09/28 04:34:30;;;;;;;3.85;2.70;;;18.10;81.10;;;;;;5111802;28;20426;-36
2023/09/28 04:36:57;;;;;;;4.00;2.75;;;18.20;81.30;;;;;;5111561;28;20118;-33
2023/09/28 04:39:24;;;;;;;4.25;2.88;;;18.20;81.30;;;;;;5093645;28;20035;-35
2023/09/28 04:41:50;;;;;;;4.22;2.90;;;18.10;81.40;;;;;;5111736;28;20055;-35
2023/09/28 04:44:16;;;;;;;4.10;2.88;;;18.10;81.40;;;;;;5093033;28;20028;-35
2023/09/28 04:46:42;;;;;;;4.15;2.70;;;18.10;81.40;;;;;;5111815;28;20027;-34
2023/09/28 04:49:08;;;;;;;6.18;3.30;;;18.10;81.50;;;;;;5111179;28;20062;-36
2023/09/28 04:51:33;;;;;;;6.88;3.30;;;18.10;81.60;;;;;;5111769;28;20027;-36
2023/09/28 04:54:04;;;;;;;6.15;3.25;;;18.10;81.70;;;;;;5111570;28;20035;-36
2023/09/28 04:56:31;;;;;;;6.18;3.17;;;18.00;81.70;;;;;;5111690;28;20024;-36
2023/09/28 04:58:59;;;;;;;4.43;3.10;;;18.00;81.80;;;;;;5111555;28;20515;-35
2023/09/28 05:01:25;;;;;;;4.40;2.70;;;18.00;81.90;;;;;;5111218;28;20077;-35
2023/09/28 05:03:50;;;;;;;5.45;3.08;;;18.00;82.00;;;;;;5111232;28;20027;-36
2023/09/28 05:06:16;;;;;;;4.03;2.88;;;18.00;82.00;;;;;;5111237;28;20028;-34
2023/09/28 05:08:42;;;;;;;4.75;2.75;;;18.00;82.10;;;;;;5111547;28;20019;-36
2023/09/28 05:11:07;;;;;;;4.25;2.80;;;17.90;82.10;;;;;;5111266;28;20403;-35
2023/09/28 05:13:33;;;;;;;4.30;3.42;;;18.00;82.20;;;;;;5111587;28;20036;-36
2023/09/28 05:15:58;;;;;;;5.43;3.50;;;17.90;82.20;;;;;;5110973;28;20027;-36
2023/09/28 05:18:24;;;;;;;4.32;3.13;;;17.90;82.20;;;;;;5111538;28;20024;-35
2023/09/28 05:20:50;;;;;;;4.75;3.30;;;17.90;82.30;;;;;;5111455;28;20058;-37
2023/09/28 05:23:16;;;;;;;4.20;3.55;;;17.90;82.40;;;;;;5111289;28;20473;-36
2023/09/28 05:25:42;;;;;;;4.25;3.20;;;17.90;82.50;;;;;;5095249;28;20024;-37
2023/09/28 05:28:08;;;;;;;4.68;3.45;;;17.90;82.60;;;;;;5096342;28;20044;-36
2023/09/28 05:30:34;;;;;;;4.53;3.25;;;17.90;82.70;;;;;;5114856;28;20080;-34
2023/09/28 05:33:00;;;;;;;3.17;2.85;;;17.80;82.70;;;;;;5096464;28;20122;-36
2023/09/28 05:35:26;;;;;;;6.80;3.35;;;17.80;82.70;;;;;;5114655;28;20107;-36
2023/09/28 05:37:51;;;;;;;4.57;3.35;;;17.80;82.80;;;;;;5114735;28;20027;-37
2023/09/28 05:40:17;;;;;;;5.65;3.83;;;17.80;82.90;;;;;;5114533;28;20459;-41
2023/09/28 05:42:42;;;;;;;5.47;3.50;;;17.80;82.90;;;;;;5096549;28;20027;-36
2023/09/28 05:45:09;;;;;;;5.10;3.30;;;17.70;83.00;;;;;;5114241;28;20465;-36
2023/09/28 05:47:35;;;;;;;5.63;3.80;;;17.70;83.10;;;;;;5114422;28;20444;-34
2023/09/28 05:50:05;;;;;;;6.57;4.10;;;17.70;83.20;;;;;;5114484;28;20058;-36
2023/09/28 05:52:31;;;;;;;5.63;3.90;;;17.70;83.30;;;;;;5114198;28;20504;-36
2023/09/28 05:54:57;;;;;;;7.32;4.60;;;17.70;83.30;;;;;;5114127;28;20023;-36
2023/09/28 05:57:22;;;;;;;6.30;4.10;;;17.70;83.40;;;;;;5114362;28;20027;-35
2023/09/28 05:59:51;;;;;;;5.50;3.75;;;17.60;83.40;;;;;;5114466;28;20073;-36
2023/09/28 06:02:18;;;;;;;9.07;4.97;;;17.60;83.50;;;;;;5114001;28;20080;-35
2023/09/28 06:04:44;;;;;;;4.90;3.90;;;17.60;83.50;;;;;;5114119;28;20476;-34
2023/09/28 06:07:10;;;;;;;5.05;3.65;;;17.60;83.50;;;;;;5114030;28;20096;-39
2023/09/28 06:09:36;;;;;;;4.63;4.07;;;17.60;83.60;;;;;;5114352;28;20099;-35
2023/09/28 06:12:02;;;;;;;6.60;3.45;;;17.60;83.70;;;;;;5114050;28;20027;-37
2023/09/28 06:14:27;;;;;;;7.13;4.30;;;17.50;83.60;;;;;;5114028;28;20059;-35
2023/09/28 06:16:53;;;;;;;5.53;4.10;;;17.50;83.70;;;;;;5113925;28;20477;-36
2023/09/28 06:19:19;;;;;;;5.93;3.70;;;17.50;83.80;;;;;;5113940;28;20066;-36
2023/09/28 06:21:45;;;;;;;5.05;3.42;;;17.50;83.90;;;;;;5113834;28;20092;-36
2023/09/28 06:24:11;;;;;;;6.13;3.72;;;17.50;83.90;;;;;;5113514;28;20035;-37
2023/09/28 06:26:37;;;;;;;6.28;3.75;;;17.50;84.00;;;;;;5113627;28;20077;-35
2023/09/28 06:29:03;;;;;;;4.82;3.47;;;17.50;84.10;;;;;;5113478;28;20036;-36
2023/09/28 06:31:30;;;;;;;9.02;3.90;;;17.50;84.00;;;;;;5113352;28;20031;-36
2023/09/28 06:33:56;;;;;;;7.10;4.03;;;17.50;84.00;;;;;;5113579;28;20413;-34
2023/09/28 06:36:25;;;;;;;5.90;3.40;;;17.50;84.00;;;;;;5112591;28;20072;-38
2023/09/28 06:38:51;;;;;;;5.97;3.97;;;17.50;84.00;;;;;;5113320;28;20098;-36
2023/09/28 06:41:17;;;;;;;7.00;3.90;;;17.50;84.00;;;;;;5113211;28;20058;-34
2023/09/28 06:43:42;;;;;;;6.90;3.97;;;17.50;84.00;;;;;;5113331;28;20027;-36
2023/09/28 06:46:08;;;;;;;5.43;3.63;;;17.50;84.00;;;;;;5113373;28;20121;-36
2023/09/28 06:48:34;;;;;;;6.43;3.65;;;17.50;84.00;;;;;;5094880;28;20027;-35
2023/09/28 06:51:00;;;;;;;6.82;3.60;;;17.50;84.00;;;;;;5113214;28;20495;-36
2023/09/28 06:53:26;;;;;;;9.88;3.85;;;17.50;84.00;;;;;;5112972;28;20051;-36
2023/09/28 06:55:53;;;;;;;5.38;3.20;;;17.50;84.00;;;;;;5113024;28;20110;-36
2023/09/28 06:58:19;;;;;;;7.15;3.78;;;17.50;84.00;;;;;;5113003;28;20027;-35
2023/09/28 07:00:45;;;;;;;7.68;3.58;;;17.60;84.00;;;;;;5094862;28;20396;-36
2023/09/28 07:03:11;;;;;;;6.30;3.53;;;17.60;83.90;;;;;;5112942;28;20020;-35
2023/09/28 07:05:38;;;;;;;11.98;3.45;;;17.60;83.90;;;;;;5112780;28;20366;-34
2023/09/28 07:08:05;;;;;;;9.98;3.50;;;17.60;83.90;;;;;;5113366;28;20059;-35
2023/09/28 07:10:32;;;;;;;6.78;3.33;;;17.60;83.70;;;;;;5094615;28;20112;-37
2023/09/28 07:13:05;;;;;;;7.53;3.35;;;17.60;83.60;;;;;;5112886;28;20023;-35
2023/09/28 07:15:36;;;;;;;8.60;3.33;;;17.60;83.50;;;;;;5112614;28;20380;-35
2023/09/28 07:18:03;;;;;;;7.28;3.10;;;17.70;83.50;;;;;;5112969;28;20489;-35
2023/09/28 07:20:28;;;;;;;11.65;3.70;;;17.70;83.30;;;;;;5094244;28;20020;-34
2023/09/28 07:22:54;;;;;;;8.82;3.67;;;17.70;83.10;;;;;;5112837;28;20032;-35
2023/09/28 07:25:20;;;;;;;11.10;3.63;;;17.70;82.90;;;;;;5112282;28;20415;-35
2023/09/28 07:27:49;;;;;;;10.77;3.17;;;17.70;82.90;;;;;;5112445;28;20067;-36
2023/09/28 07:30:18;;;;;;;9.77;2.92;;;17.70;82.80;;;;;;5112653;28;20518;-35
2023/09/28 07:32:45;;;;;;;10.90;2.97;;;17.80;82.70;;;;;;5112412;28;20027;-35
2023/09/28 07:35:11;;;;;;;7.40;2.67;;;17.80;82.60;;;;;;5112334;28;20028;-36
2023/09/28 07:37:40;;;;;;;8.43;2.75;;;17.80;82.50;;;;;;5112452;28;20024;-35
2023/09/28 07:40:07;;;;;;;15.18;3.65;;;17.90;82.30;;;;;;5112283;28;20064;-35
2023/09/28 07:42:32;;;;;;;9.07;2.72;;;17.90;82.20;;;;;;5112314;28;20458;-36
2023/09/28 07:44:58;;;;;;;10.38;2.67;;;17.90;82.10;;;;;;5112201;28;20051;-35
2023/09/28 07:47:24;;;;;;;10.18;2.45;;;18.00;82.00;;;;;;5111656;28;20355;-36
2023/09/28 07:49:52;;;;;;;10.32;2.80;;;18.00;81.80;;;;;;5112061;28;20024;-35
2023/09/28 07:52:18;;;;;;;9.32;2.20;;;18.00;81.60;;;;;;5112196;28;20020;-36
2023/09/28 07:54:43;;;;;;;8.25;2.72;;;18.10;81.30;;;;;;5112072;28;20035;-36
2023/09/28 07:57:09;;;;;;;14.15;3.22;;;18.10;81.10;;;;;;5112876;28;20047;-35
2023/09/28 07:59:35;;;;;;;12.73;2.85;;;18.20;80.90;;;;;;5112163;28;20024;-36
2023/09/28 08:02:01;;;;;;;11.38;2.53;;;18.20;80.80;;;;;;5112036;28;20027;-37
2023/09/28 08:04:27;;;;;;;7.47;2.15;;;18.30;80.70;;;;;;5093649;28;20515;-35
2023/09/28 08:06:54;;;;;;;12.30;2.85;;;18.30;80.50;;;;;;5112044;28;20024;-36
2023/09/28 08:09:19;;;;;;;9.75;2.42;;;18.40;80.40;;;;;;5111949;28;20387;-36
2023/09/28 08:11:48;;;;;;;12.20;3.00;;;18.40;80.20;;;;;;5112321;28;20031;-36
2023/09/28 08:14:15;;;;;;;11.77;2.92;;;18.50;80.10;;;;;;5112138;28;20047;-35
2023/09/28 08:16:45;;;;;;;9.98;2.90;;;18.50;79.80;;;;;;5112078;28;20027;-35
2023/09/28 08:19:11;;;;;;;15.55;3.35;;;18.50;79.70;;;;;;5111750;28;20030;-35
2023/09/28 08:21:38;;;;;;;11.05;2.60;;;18.50;79.70;;;;;;5112060;28;20020;-35
2023/09/28 08:24:05;;;;;;;13.75;3.65;;;18.50;79.70;;;;;;5111685;28;20026;-36
2023/09/28 08:26:30;;;;;;;14.15;4.43;;;18.60;79.50;;;;;;5111969;28;20020;-35
2023/09/28 08:28:58;;;;;;;13.82;2.63;;;18.60;79.30;;;;;;5111677;28;20051;-33
2023/09/28 08:31:24;;;;;;;13.07;2.95;;;18.60;79.10;;;;;;5093644;28;20484;-36
2023/09/28 08:33:49;;;;;;;13.25;2.55;;;18.60;79.00;;;;;;5112019;28;20077;-36
2023/09/28 08:36:15;;;;;;;12.23;3.15;;;18.60;78.80;;;;;;5111869;28;20090;-36
2023/09/28 08:38:41;;;;;;;14.73;3.00;;;18.70;78.70;;;;;;5093678;28;20020;-37
2023/09/28 08:41:09;;;;;;;12.27;2.80;;;18.70;78.60;;;;;;5112131;28;20027;-38
2023/09/28 08:43:42;;;;;;;10.52;2.45;;;18.80;78.30;;;;;;5111815;28;20393;-33
2023/09/28 08:46:10;;;;;;;14.85;2.60;;;18.90;78.30;;;;;;5111499;28;20034;-36
2023/09/28 08:48:40;;;;;;;15.82;3.40;;;18.90;78.00;;;;;;5111851;28;20028;-34
2023/09/28 08:51:09;;;;;;;13.30;4.15;;;19.00;77.80;;;;;;5111546;28;20073;-35
2023/09/28 08:53:40;;;;;;;13.70;3.30;;;19.10;77.70;;;;;;5111636;28;20023;-35
2023/09/28 08:56:06;;;;;;;12.43;3.15;;;19.20;77.40;;;;;;5111715;28;20027;-36
2023/09/28 08:58:36;;;;;;;14.88;3.05;;;19.30;77.00;;;;;;5093239;28;20027;-37
2023/09/28 09:01:03;;;;;;;11.98;2.85;;;19.30;76.70;;;;;;5114988;28;20020;-36
2023/09/28 09:03:31;;;;;;;11.20;3.10;;;19.40;77.10;;;;;;5115378;28;20047;-36
2023/09/28 09:05:57;;;;;;;12.35;2.83;;;19.50;76.10;;;;;;5097220;28;20488;-34
2023/09/28 09:08:24;;;;;;;15.63;3.30;;;19.50;75.70;;;;;;5097036;28;20016;-36
2023/09/28 09:10:51;;;;;;;13.77;2.95;;;19.60;75.40;;;;;;5115278;28;20423;-36
2023/09/28 09:13:20;;;;;;;12.27;2.70;;;19.70;75.40;;;;;;5115226;28;20019;-36
2023/09/28 09:15:46;;;;;;;9.80;2.83;;;19.80;74.80;;;;;;5115101;28;20059;-35
2023/09/28 09:18:19;;;;;;;11.25;3.08;;;19.90;74.50;;;;;;5097044;28;20516;-36
2023/09/28 09:20:46;;;;;;;10.38;2.47;;;19.90;74.00;;;;;;5115043;28;20039;-36
2023/09/28 09:23:16;;;;;;;9.90;2.80;;;19.90;73.90;;;;;;5114879;28;20480;-37
2023/09/28 09:25:53;;;;;;;12.13;2.67;;;20.00;74.40;;;;;;5114881;28;20084;-36
2023/09/28 09:28:32;;;;;;;13.45;3.00;;;20.00;73.50;;;;;;5115026;28;20046;-36
2023/09/28 09:30:58;;;;;;;8.73;2.70;;;20.10;73.40;;;;;;5115262;28;20396;-34
2023/09/28 09:33:25;;;;;;;8.15;2.47;;;20.10;73.30;;;;;;5114964;28;20092;-35
2023/09/28 09:35:51;;;;;;;12.63;2.72;;;20.20;73.10;;;;;;5114761;28;20047;-35
2023/09/28 09:38:32;;;;;;;10.70;2.80;;;20.30;72.90;;;;;;5114683;28;20460;-35
2023/09/28 09:40:58;;;;;;;10.23;2.70;;;20.40;72.70;;;;;;5114630;28;20036;-34
2023/09/28 09:43:24;;;;;;;13.77;2.97;;;20.50;72.70;;;;;;5114519;28;20027;-33
2023/09/28 09:45:50;;;;;;;13.00;2.83;;;20.50;72.10;;;;;;5114433;28;20522;-35
2023/09/28 09:48:16;;;;;;;9.05;2.83;;;20.50;71.90;;;;;;5114401;28;20031;-36
2023/09/28 09:50:43;;;;;;;10.27;3.22;;;20.60;71.60;;;;;;5114575;28;20354;-35
2023/09/28 09:53:10;;;;;;;10.52;2.63;;;20.60;71.40;;;;;;5096336;28;20115;-37
2023/09/28 09:55:41;;;;;;;11.88;3.33;;;20.50;71.20;;;;;;5114439;28;20374;-36
2023/09/28 09:58:09;;;;;;;11.88;2.97;;;20.50;71.10;;;;;;5114655;28;20020;-37
2023/09/28 10:00:37;;;;;;;13.40;3.00;;;20.50;71.10;;;;;;5114245;28;20028;-37
2023/09/28 10:03:05;;;;;;;13.65;3.58;;;20.50;71.20;;;;;;5114372;28;20020;-38
2023/09/28 10:05:32;;;;;;;10.25;2.53;;;20.50;71.00;;;;;;5114039;28;20030;-35
2023/09/28 10:07:59;;;;;;;11.68;2.42;;;20.50;70.90;;;;;;5113895;28;20020;-34
2023/09/28 10:10:28;;;;;;;12.65;2.75;;;20.50;71.40;;;;;;5113017;28;20065;-35
2023/09/28 10:12:55;;;;;;;13.25;3.25;;;20.50;70.60;;;;;;5114112;28;20020;-37
2023/09/28 10:15:21;;;;;;;10.43;2.80;;;20.50;70.60;;;;;;5113958;28;20020;-36
2023/09/28 10:17:47;;;;;;;10.98;2.80;;;20.60;70.60;;;;;;5114338;28;20038;-35
2023/09/28 10:20:14;;;;;;;9.95;2.55;;;20.60;70.30;;;;;;5113897;28;20077;-35
2023/09/28 10:22:47;;;;;;;8.48;2.67;;;20.70;70.20;;;;;;5113769;28;20039;-34
2023/09/28 10:25:15;;;;;;;10.30;2.95;;;20.80;70.00;;;;;;5113615;28;20026;-37
2023/09/28 10:27:44;;;;;;;10.35;2.42;;;20.80;69.90;;;;;;5095291;28;20039;-35
2023/09/28 10:30:23;;;;;;;8.48;2.50;;;20.80;69.80;;;;;;5113615;28;20058;-37
2023/09/28 10:32:54;;;;;;;10.48;2.92;;;20.90;69.80;;;;;;5113962;28;20024;-36
2023/09/28 10:35:19;;;;;;;9.10;2.78;;;21.10;69.60;;;;;;5113553;28;20141;-36
2023/09/28 10:38:17;;;;;;;9.65;2.70;;;21.10;69.50;;;;;;5114043;28;20404;-36
2023/09/28 10:41:03;;;;;;;8.88;2.22;;;21.10;69.10;;;;;;5113533;28;20030;-37
2023/09/28 10:43:30;;;;;;;9.82;2.60;;;21.10;69.20;;;;;;5113883;28;20409;-36
2023/09/28 10:45:57;;;;;;;7.65;2.40;;;21.20;69.20;;;;;;5113309;28;20480;-35
2023/09/28 10:48:23;;;;;;;15.93;3.50;;;21.10;69.00;;;;;;5113704;28;20030;-36
2023/09/28 10:50:51;;;;;;;13.23;2.80;;;21.10;68.80;;;;;;5095071;28;20023;-34
2023/09/28 10:53:17;;;;;;;9.98;2.80;;;21.10;68.80;;;;;;5113606;28;20034;-35
2023/09/28 10:55:43;;;;;;;13.93;2.80;;;21.20;68.80;;;;;;5113257;28;20024;-38
2023/09/28 10:58:08;;;;;;;12.15;3.42;;;21.30;68.60;;;;;;5113530;28;20054;-35
2023/09/28 11:00:34;;;;;;;10.32;3.03;;;21.20;68.20;;;;;;5113080;28;20115;-36
2023/09/28 11:03:00;;;;;;;10.93;2.50;;;21.20;68.20;;;;;;5113284;28;20031;-36
2023/09/28 11:05:26;;;;;;;8.73;2.50;;;21.20;68.10;;;;;;5112904;28;20020;-36
2023/09/28 11:07:52;;;;;;;11.85;3.00;;;21.30;68.10;;;;;;5112547;28;20381;-34
2023/09/28 11:10:18;;;;;;;12.95;2.90;;;21.20;68.00;;;;;;5113073;28;20023;-36
2023/09/28 11:12:44;;;;;;;12.57;3.40;;;21.30;67.90;;;;;;5112844;28;20538;-36
2023/09/28 11:15:14;;;;;;;12.43;3.00;;;21.30;67.80;;;;;;5112623;28;20023;-36
2023/09/28 11:17:40;;;;;;;11.40;3.20;;;21.40;67.70;;;;;;5113051;28;20073;-36
2023/09/28 11:20:08;;;;;;;9.10;2.55;;;21.50;67.60;;;;;;5113031;28;20051;-35
2023/09/28 11:22:35;;;;;;;11.25;2.90;;;21.50;67.50;;;;;;5112422;28;20362;-37
2023/09/28 11:25:01;;;;;;;10.63;2.70;;;21.50;67.30;;;;;;5112792;28;20065;-36
2023/09/28 11:27:27;;;;;;;16.45;3.40;;;21.50;67.10;;;;;;5112389;28;20316;-36
2023/09/28 11:29:56;;;;;;;12.93;2.58;;;21.50;66.90;;;;;;5112522;28;20042;-37
2023/09/28 11:32:22;;;;;;;10.75;2.90;;;21.50;67.00;;;;;;5112726;28;20093;-36
2023/09/28 11:34:47;;;;;;;8.75;2.53;;;21.50;67.00;;;;;;5112358;28;20032;-36
2023/09/28 11:37:16;;;;;;;9.90;2.90;;;21.60;66.90;;;;;;5112401;28;20024;-37
2023/09/28 11:39:42;;;;;;;16.70;3.40;;;21.60;66.80;;;;;;5112786;28;20028;-36
2023/09/28 11:42:08;;;;;;;13.00;2.70;;;21.70;66.40;;;;;;5112502;28;20646;-35
2023/09/28 11:44:34;;;;;;;11.45;3.05;;;21.70;66.40;;;;;;5112282;28;20019;-36
2023/09/28 11:47:00;;;;;;;13.38;2.88;;;21.70;66.40;;;;;;5112079;28;20020;-34
2023/09/28 11:49:26;;;;;;;8.77;2.70;;;21.70;66.40;;;;;;5112194;28;20351;-36
2023/09/28 11:51:52;;;;;;;10.20;2.80;;;21.70;66.40;;;;;;5112163;28;20031;-37
2023/09/28 11:54:18;;;;;;;8.50;2.72;;;21.70;66.40;;;;;;5112065;28;20028;-34
2023/09/28 11:56:44;;;;;;;10.57;2.60;;;21.80;66.20;;;;;;5112055;28;20046;-37
2023/09/28 11:59:17;;;;;;;10.02;3.13;;;21.80;66.20;;;;;;5112143;28;20020;-35
2023/09/28 12:01:46;;;;;;;14.07;2.83;;;21.80;65.90;;;;;;5093649;28;20028;-36
2023/09/28 12:04:12;;;;;;;12.27;2.95;;;21.80;66.00;;;;;;5112015;28;20384;-36
2023/09/28 12:06:38;;;;;;;10.32;2.55;;;21.90;66.00;;;;;;5112159;28;20107;-35
2023/09/28 12:09:06;;;;;;;10.38;2.72;;;21.80;66.00;;;;;;5112278;28;20046;-36
2023/09/28 12:11:33;;;;;;;10.23;2.85;;;21.90;66.10;;;;;;5112170;28;20468;-36
2023/09/28 12:13:59;;;;;;;12.10;2.50;;;21.90;66.00;;;;;;5111932;28;20437;-36
2023/09/28 12:16:26;;;;;;;7.80;2.22;;;21.90;66.00;;;;;;5111706;28;20043;-37
2023/09/28 12:18:51;;;;;;;12.05;2.70;;;21.90;65.90;;;;;;5111662;28;20100;-35
2023/09/28 12:21:17;;;;;;;8.52;2.35;;;22.00;65.90;;;;;;5111811;28;20404;-36
2023/09/28 12:23:42;;;;;;;10.65;2.58;;;22.10;65.80;;;;;;5093563;28;20077;-37
2023/09/28 12:26:10;;;;;;;8.13;2.30;;;22.10;65.80;;;;;;5111641;28;20024;-37
2023/09/28 12:28:37;;;;;;;7.97;2.80;;;22.10;65.70;;;;;;5111635;28;20096;-35
2023/09/28 12:31:04;;;;;;;12.77;2.78;;;22.10;65.60;;;;;;5111489;28;20031;-36
2023/09/28 12:33:29;;;;;;;11.52;2.28;;;22.20;65.50;;;;;;5112754;28;20745;-36
2023/09/28 12:35:57;;;;;;;8.20;2.60;;;22.10;65.40;;;;;;5115874;28;20020;-37
2023/09/28 12:38:23;;;;;;;8.35;2.70;;;22.10;65.30;;;;;;5116062;28;20023;-35
2023/09/28 12:40:49;;;;;;;12.57;2.88;;;22.20;65.20;;;;;;5115655;28;20023;-35
2023/09/28 12:43:15;;;;;;;11.10;2.90;;;22.20;65.20;;;;;;5115653;28;20031;-35